sensor_id;sensor_type;location;lat;lon;timestamp;P1;durP1;ratioP1;P2;durP2;ratioP2
53056;SDS011;38940;50.096;4.012;2023-07-13T00:00:21;6.97;;;1.15;;
53056;SDS011;38940;50.096;4.012;2023-07-13T00:02:47;3.67;;;1.17;;
53056;SDS011;38940;50.096;4.012;2023-07-13T00:05:13;5.47;;;1.10;;
53056;SDS011;38940;50.096;4.012;2023-07-13T00:07:39;6.43;;;1.13;;
53056;SDS011;38940;50.096;4.012;2023-07-13T00:10:05;6.32;;;1.30;;
53056;SDS011;38940;50.096;4.012;2023-07-13T00:12:34;7.05;;;1.20;;
53056;SDS011;38940;50.096;4.012;2023-07-13T00:15:00;4.70;;;1.20;;
53056;SDS011;38940;50.096;4.012;2023-07-13T00:17:28;7.75;;;1.40;;
53056;SDS011;38940;50.096;4.012;2023-07-13T00:19:54;6.85;;;1.40;;
53056;SDS011;38940;50.096;4.012;2023-07-13T00:22:20;6.30;;;1.00;;
53056;SDS011;38940;50.096;4.012;2023-07-13T00:24:47;5.00;;;1.30;;
53056;SDS011;38940;50.096;4.012;2023-07-13T00:27:13;7.60;;;1.30;;
53056;SDS011;38940;50.096;4.012;2023-07-13T00:29:39;9.95;;;1.40;;
53056;SDS011;38940;50.096;4.012;2023-07-13T00:32:06;5.55;;;1.30;;
53056;SDS011;38940;50.096;4.012;2023-07-13T00:34:32;6.05;;;1.20;;
53056;SDS011;38940;50.096;4.012;2023-07-13T00:36:58;6.30;;;1.10;;
53056;SDS011;38940;50.096;4.012;2023-07-13T00:39:24;7.50;;;1.30;;
53056;SDS011;38940;50.096;4.012;2023-07-13T00:41:51;7.15;;;1.40;;
53056;SDS011;38940;50.096;4.012;2023-07-13T00:44:17;7.77;;;1.43;;
53056;SDS011;38940;50.096;4.012;2023-07-13T00:46:44;7.07;;;1.48;;
53056;SDS011;38940;50.096;4.012;2023-07-13T00:49:11;5.40;;;1.20;;
53056;SDS011;38940;50.096;4.012;2023-07-13T00:51:43;6.13;;;1.30;;
53056;SDS011;38940;50.096;4.012;2023-07-13T00:54:11;7.18;;;1.75;;
53056;SDS011;38940;50.096;4.012;2023-07-13T00:56:39;8.43;;;1.55;;
53056;SDS011;38940;50.096;4.012;2023-07-13T00:59:06;8.63;;;1.52;;
53056;SDS011;38940;50.096;4.012;2023-07-13T01:01:34;9.25;;;1.40;;
53056;SDS011;38940;50.096;4.012;2023-07-13T01:04:01;10.93;;;1.98;;
53056;SDS011;38940;50.096;4.012;2023-07-13T01:06:27;7.57;;;1.60;;
53056;SDS011;38940;50.096;4.012;2023-07-13T01:08:54;8.27;;;1.48;;
53056;SDS011;38940;50.096;4.012;2023-07-13T01:11:22;7.00;;;1.52;;
53056;SDS011;38940;50.096;4.012;2023-07-13T01:13:48;10.50;;;1.45;;
53056;SDS011;38940;50.096;4.012;2023-07-13T01:16:15;6.22;;;1.60;;
53056;SDS011;38940;50.096;4.012;2023-07-13T01:18:43;7.53;;;1.27;;
53056;SDS011;38940;50.096;4.012;2023-07-13T01:21:09;7.75;;;1.60;;
53056;SDS011;38940;50.096;4.012;2023-07-13T01:23:35;8.95;;;1.70;;
53056;SDS011;38940;50.096;4.012;2023-07-13T01:26:01;7.97;;;1.50;;
53056;SDS011;38940;50.096;4.012;2023-07-13T01:28:27;8.65;;;1.45;;
53056;SDS011;38940;50.096;4.012;2023-07-13T01:30:55;5.43;;;1.30;;
53056;SDS011;38940;50.096;4.012;2023-07-13T01:33:21;6.03;;;1.40;;
53056;SDS011;38940;50.096;4.012;2023-07-13T01:35:47;8.60;;;1.40;;
53056;SDS011;38940;50.096;4.012;2023-07-13T01:38:14;8.32;;;1.40;;
53056;SDS011;38940;50.096;4.012;2023-07-13T01:40:41;10.25;;;1.95;;
53056;SDS011;38940;50.096;4.012;2023-07-13T01:43:07;11.90;;;1.83;;
53056;SDS011;38940;50.096;4.012;2023-07-13T01:45:33;8.40;;;1.60;;
53056;SDS011;38940;50.096;4.012;2023-07-13T01:47:59;8.07;;;1.48;;
53056;SDS011;38940;50.096;4.012;2023-07-13T01:50:25;9.57;;;1.43;;
53056;SDS011;38940;50.096;4.012;2023-07-13T01:52:51;6.60;;;1.58;;
53056;SDS011;38940;50.096;4.012;2023-07-13T01:55:19;10.63;;;1.48;;
53056;SDS011;38940;50.096;4.012;2023-07-13T01:57:45;10.40;;;1.60;;
53056;SDS011;38940;50.096;4.012;2023-07-13T02:00:12;7.55;;;1.48;;
53056;SDS011;38940;50.096;4.012;2023-07-13T02:02:38;8.10;;;1.30;;
53056;SDS011;38940;50.096;4.012;2023-07-13T02:05:05;6.80;;;1.20;;
53056;SDS011;38940;50.096;4.012;2023-07-13T02:07:31;5.95;;;1.30;;
53056;SDS011;38940;50.096;4.012;2023-07-13T02:09:57;8.20;;;1.70;;
53056;SDS011;38940;50.096;4.012;2023-07-13T02:12:23;8.73;;;1.47;;
53056;SDS011;38940;50.096;4.012;2023-07-13T02:14:49;8.00;;;1.63;;
53056;SDS011;38940;50.096;4.012;2023-07-13T02:17:15;6.93;;;1.35;;
53056;SDS011;38940;50.096;4.012;2023-07-13T02:19:41;6.40;;;1.40;;
53056;SDS011;38940;50.096;4.012;2023-07-13T02:22:07;12.80;;;1.77;;
53056;SDS011;38940;50.096;4.012;2023-07-13T02:24:33;14.23;;;1.60;;
53056;SDS011;38940;50.096;4.012;2023-07-13T02:26:59;8.57;;;1.40;;
53056;SDS011;38940;50.096;4.012;2023-07-13T02:29:25;9.48;;;1.38;;
53056;SDS011;38940;50.096;4.012;2023-07-13T02:31:51;8.35;;;1.50;;
53056;SDS011;38940;50.096;4.012;2023-07-13T02:34:17;8.85;;;1.65;;
53056;SDS011;38940;50.096;4.012;2023-07-13T02:36:43;5.60;;;1.30;;
53056;SDS011;38940;50.096;4.012;2023-07-13T02:39:09;5.30;;;1.20;;
53056;SDS011;38940;50.096;4.012;2023-07-13T02:41:37;11.15;;;1.67;;
53056;SDS011;38940;50.096;4.012;2023-07-13T02:44:03;9.30;;;1.60;;
53056;SDS011;38940;50.096;4.012;2023-07-13T02:46:33;9.52;;;1.30;;
53056;SDS011;38940;50.096;4.012;2023-07-13T02:48:59;10.10;;;1.60;;
53056;SDS011;38940;50.096;4.012;2023-07-13T02:51:25;8.82;;;1.60;;
53056;SDS011;38940;50.096;4.012;2023-07-13T02:53:51;9.15;;;1.85;;
53056;SDS011;38940;50.096;4.012;2023-07-13T02:56:18;7.67;;;1.43;;
53056;SDS011;38940;50.096;4.012;2023-07-13T02:58:44;8.33;;;1.80;;
53056;SDS011;38940;50.096;4.012;2023-07-13T03:01:11;8.93;;;1.60;;
53056;SDS011;38940;50.096;4.012;2023-07-13T03:03:37;11.83;;;1.77;;
53056;SDS011;38940;50.096;4.012;2023-07-13T03:06:03;9.33;;;1.90;;
53056;SDS011;38940;50.096;4.012;2023-07-13T03:08:30;8.50;;;1.65;;
53056;SDS011;38940;50.096;4.012;2023-07-13T03:11:00;10.85;;;1.83;;
53056;SDS011;38940;50.096;4.012;2023-07-13T03:13:26;7.30;;;1.60;;
53056;SDS011;38940;50.096;4.012;2023-07-13T03:15:52;6.68;;;1.55;;
53056;SDS011;38940;50.096;4.012;2023-07-13T03:18:18;11.35;;;1.70;;
53056;SDS011;38940;50.096;4.012;2023-07-13T03:20:44;6.28;;;1.80;;
53056;SDS011;38940;50.096;4.012;2023-07-13T03:23:10;10.05;;;1.95;;
53056;SDS011;38940;50.096;4.012;2023-07-13T03:25:36;9.35;;;1.70;;
53056;SDS011;38940;50.096;4.012;2023-07-13T03:28:03;8.68;;;1.70;;
53056;SDS011;38940;50.096;4.012;2023-07-13T03:30:30;8.20;;;1.60;;
53056;SDS011;38940;50.096;4.012;2023-07-13T03:32:56;8.87;;;1.67;;
53056;SDS011;38940;50.096;4.012;2023-07-13T03:35:22;11.45;;;1.95;;
53056;SDS011;38940;50.096;4.012;2023-07-13T03:37:48;7.78;;;1.80;;
53056;SDS011;38940;50.096;4.012;2023-07-13T03:40:14;12.55;;;2.10;;
53056;SDS011;38940;50.096;4.012;2023-07-13T03:42:40;9.80;;;1.65;;
53056;SDS011;38940;50.096;4.012;2023-07-13T03:45:06;12.27;;;1.80;;
53056;SDS011;38940;50.096;4.012;2023-07-13T03:47:33;9.85;;;1.83;;
53056;SDS011;38940;50.096;4.012;2023-07-13T03:49:58;9.57;;;1.80;;
53056;SDS011;38940;50.096;4.012;2023-07-13T03:52:24;10.63;;;2.00;;
53056;SDS011;38940;50.096;4.012;2023-07-13T03:54:50;6.72;;;1.58;;
53056;SDS011;38940;50.096;4.012;2023-07-13T03:57:18;11.75;;;1.90;;
53056;SDS011;38940;50.096;4.012;2023-07-13T03:59:44;7.78;;;1.80;;
53056;SDS011;38940;50.096;4.012;2023-07-13T04:02:10;9.35;;;1.83;;
53056;SDS011;38940;50.096;4.012;2023-07-13T04:04:36;10.60;;;1.80;;
53056;SDS011;38940;50.096;4.012;2023-07-13T04:07:05;8.85;;;1.85;;
53056;SDS011;38940;50.096;4.012;2023-07-13T04:09:33;8.07;;;1.88;;
53056;SDS011;38940;50.096;4.012;2023-07-13T04:11:59;9.85;;;1.85;;
53056;SDS011;38940;50.096;4.012;2023-07-13T04:14:25;11.30;;;1.98;;
53056;SDS011;38940;50.096;4.012;2023-07-13T04:16:51;9.60;;;1.83;;
53056;SDS011;38940;50.096;4.012;2023-07-13T04:19:19;8.95;;;1.85;;
53056;SDS011;38940;50.096;4.012;2023-07-13T04:21:45;11.07;;;1.60;;
53056;SDS011;38940;50.096;4.012;2023-07-13T04:24:11;8.87;;;1.70;;
53056;SDS011;38940;50.096;4.012;2023-07-13T04:26:37;6.90;;;1.70;;
53056;SDS011;38940;50.096;4.012;2023-07-13T04:29:05;8.30;;;1.73;;
53056;SDS011;38940;50.096;4.012;2023-07-13T04:31:31;9.40;;;1.70;;
53056;SDS011;38940;50.096;4.012;2023-07-13T04:33:57;7.40;;;1.70;;
53056;SDS011;38940;50.096;4.012;2023-07-13T04:36:23;9.10;;;1.80;;
53056;SDS011;38940;50.096;4.012;2023-07-13T04:38:52;7.65;;;1.50;;
53056;SDS011;38940;50.096;4.012;2023-07-13T04:41:19;11.50;;;1.80;;
53056;SDS011;38940;50.096;4.012;2023-07-13T04:43:45;10.20;;;1.70;;
53056;SDS011;38940;50.096;4.012;2023-07-13T04:46:12;11.48;;;1.75;;
53056;SDS011;38940;50.096;4.012;2023-07-13T04:48:38;7.80;;;1.50;;
53056;SDS011;38940;50.096;4.012;2023-07-13T04:51:05;6.22;;;1.52;;
53056;SDS011;38940;50.096;4.012;2023-07-13T04:53:31;4.35;;;1.33;;
53056;SDS011;38940;50.096;4.012;2023-07-13T04:55:59;8.27;;;1.58;;
53056;SDS011;38940;50.096;4.012;2023-07-13T04:58:25;10.48;;;1.55;;
53056;SDS011;38940;50.096;4.012;2023-07-13T05:00:52;8.27;;;1.45;;
53056;SDS011;38940;50.096;4.012;2023-07-13T05:03:18;8.82;;;1.48;;
53056;SDS011;38940;50.096;4.012;2023-07-13T05:05:53;7.45;;;1.42;;
53056;SDS011;38940;50.096;4.012;2023-07-13T05:08:20;8.68;;;1.60;;
53056;SDS011;38940;50.096;4.012;2023-07-13T05:10:45;10.40;;;2.00;;
53056;SDS011;38940;50.096;4.012;2023-07-13T05:13:11;7.15;;;1.75;;
53056;SDS011;38940;50.096;4.012;2023-07-13T05:15:37;9.60;;;1.63;;
53056;SDS011;38940;50.096;4.012;2023-07-13T05:18:03;8.60;;;1.50;;
53056;SDS011;38940;50.096;4.012;2023-07-13T05:20:29;7.10;;;1.67;;
53056;SDS011;38940;50.096;4.012;2023-07-13T05:22:56;7.97;;;1.50;;
53056;SDS011;38940;50.096;4.012;2023-07-13T05:25:22;10.93;;;1.85;;
53056;SDS011;38940;50.096;4.012;2023-07-13T05:27:48;11.05;;;1.70;;
53056;SDS011;38940;50.096;4.012;2023-07-13T05:30:14;8.27;;;2.10;;
53056;SDS011;38940;50.096;4.012;2023-07-13T05:32:40;6.65;;;1.75;;
53056;SDS011;38940;50.096;4.012;2023-07-13T05:35:06;7.18;;;1.85;;
53056;SDS011;38940;50.096;4.012;2023-07-13T05:37:32;9.63;;;1.73;;
53056;SDS011;38940;50.096;4.012;2023-07-13T05:39:58;9.90;;;1.70;;
53056;SDS011;38940;50.096;4.012;2023-07-13T05:42:24;8.40;;;1.67;;
53056;SDS011;38940;50.096;4.012;2023-07-13T05:44:50;9.77;;;1.88;;
53056;SDS011;38940;50.096;4.012;2023-07-13T05:47:16;9.65;;;1.88;;
53056;SDS011;38940;50.096;4.012;2023-07-13T05:49:42;12.48;;;1.50;;
53056;SDS011;38940;50.096;4.012;2023-07-13T05:52:08;11.50;;;1.85;;
53056;SDS011;38940;50.096;4.012;2023-07-13T05:54:34;7.82;;;1.50;;
53056;SDS011;38940;50.096;4.012;2023-07-13T05:57:00;8.82;;;1.58;;
53056;SDS011;38940;50.096;4.012;2023-07-13T05:59:26;8.25;;;1.33;;
53056;SDS011;38940;50.096;4.012;2023-07-13T06:01:52;5.15;;;1.35;;
53056;SDS011;38940;50.096;4.012;2023-07-13T06:04:19;8.18;;;1.48;;
53056;SDS011;38940;50.096;4.012;2023-07-13T06:06:45;10.15;;;1.98;;
53056;SDS011;38940;50.096;4.012;2023-07-13T06:09:11;8.75;;;1.77;;
53056;SDS011;38940;50.096;4.012;2023-07-13T06:11:37;8.93;;;1.73;;
53056;SDS011;38940;50.096;4.012;2023-07-13T06:14:03;7.13;;;1.88;;
53056;SDS011;38940;50.096;4.012;2023-07-13T06:16:29;11.45;;;1.73;;
53056;SDS011;38940;50.096;4.012;2023-07-13T06:18:55;9.50;;;1.80;;
53056;SDS011;38940;50.096;4.012;2023-07-13T06:21:22;9.87;;;1.50;;
53056;SDS011;38940;50.096;4.012;2023-07-13T06:23:49;10.50;;;1.50;;
53056;SDS011;38940;50.096;4.012;2023-07-13T06:26:16;10.90;;;2.45;;
53056;SDS011;38940;50.096;4.012;2023-07-13T06:28:42;13.13;;;1.70;;
53056;SDS011;38940;50.096;4.012;2023-07-13T06:31:09;9.20;;;1.90;;
53056;SDS011;38940;50.096;4.012;2023-07-13T06:33:35;10.23;;;1.60;;
53056;SDS011;38940;50.096;4.012;2023-07-13T06:36:02;7.88;;;1.88;;
53056;SDS011;38940;50.096;4.012;2023-07-13T06:38:29;12.38;;;1.77;;
53056;SDS011;38940;50.096;4.012;2023-07-13T06:40:55;8.75;;;1.83;;
53056;SDS011;38940;50.096;4.012;2023-07-13T06:43:21;7.15;;;1.70;;
53056;SDS011;38940;50.096;4.012;2023-07-13T06:45:49;11.50;;;2.23;;
53056;SDS011;38940;50.096;4.012;2023-07-13T06:48:16;9.00;;;1.63;;
53056;SDS011;38940;50.096;4.012;2023-07-13T06:50:43;9.10;;;1.83;;
53056;SDS011;38940;50.096;4.012;2023-07-13T06:53:09;6.80;;;1.60;;
53056;SDS011;38940;50.096;4.012;2023-07-13T06:55:35;8.88;;;1.85;;
53056;SDS011;38940;50.096;4.012;2023-07-13T06:58:01;11.13;;;1.70;;
53056;SDS011;38940;50.096;4.012;2023-07-13T07:00:27;10.97;;;1.70;;
53056;SDS011;38940;50.096;4.012;2023-07-13T07:02:53;11.05;;;1.90;;
53056;SDS011;38940;50.096;4.012;2023-07-13T07:05:19;8.52;;;1.60;;
53056;SDS011;38940;50.096;4.012;2023-07-13T07:07:47;10.85;;;1.80;;
53056;SDS011;38940;50.096;4.012;2023-07-13T07:10:13;9.15;;;1.73;;
53056;SDS011;38940;50.096;4.012;2023-07-13T07:12:39;11.55;;;1.70;;
53056;SDS011;38940;50.096;4.012;2023-07-13T07:15:05;10.00;;;1.83;;
53056;SDS011;38940;50.096;4.012;2023-07-13T07:17:31;10.07;;;1.67;;
53056;SDS011;38940;50.096;4.012;2023-07-13T07:19:57;10.15;;;1.73;;
53056;SDS011;38940;50.096;4.012;2023-07-13T07:22:23;11.13;;;2.35;;
53056;SDS011;38940;50.096;4.012;2023-07-13T07:24:52;8.80;;;1.52;;
53056;SDS011;38940;50.096;4.012;2023-07-13T07:27:18;12.90;;;1.70;;
53056;SDS011;38940;50.096;4.012;2023-07-13T07:29:44;7.30;;;1.80;;
53056;SDS011;38940;50.096;4.012;2023-07-13T07:32:10;10.98;;;1.75;;
53056;SDS011;38940;50.096;4.012;2023-07-13T07:34:36;10.20;;;1.67;;
53056;SDS011;38940;50.096;4.012;2023-07-13T07:37:02;10.55;;;2.00;;
53056;SDS011;38940;50.096;4.012;2023-07-13T07:39:28;11.88;;;1.83;;
53056;SDS011;38940;50.096;4.012;2023-07-13T07:41:54;10.15;;;2.00;;
53056;SDS011;38940;50.096;4.012;2023-07-13T07:44:20;12.02;;;2.10;;
53056;SDS011;38940;50.096;4.012;2023-07-13T07:46:46;10.02;;;1.80;;
53056;SDS011;38940;50.096;4.012;2023-07-13T07:49:12;8.60;;;1.97;;
53056;SDS011;38940;50.096;4.012;2023-07-13T07:51:38;7.68;;;1.92;;
53056;SDS011;38940;50.096;4.012;2023-07-13T07:54:04;10.73;;;1.80;;
53056;SDS011;38940;50.096;4.012;2023-07-13T07:56:31;13.40;;;1.80;;
53056;SDS011;38940;50.096;4.012;2023-07-13T07:58:57;15.10;;;1.90;;
53056;SDS011;38940;50.096;4.012;2023-07-13T08:01:23;9.43;;;1.90;;
53056;SDS011;38940;50.096;4.012;2023-07-13T08:03:49;10.27;;;1.88;;
53056;SDS011;38940;50.096;4.012;2023-07-13T08:06:15;7.85;;;1.67;;
53056;SDS011;38940;50.096;4.012;2023-07-13T08:08:41;15.73;;;2.45;;
53056;SDS011;38940;50.096;4.012;2023-07-13T08:11:07;10.27;;;1.65;;
53056;SDS011;38940;50.096;4.012;2023-07-13T08:13:34;10.10;;;1.83;;
53056;SDS011;38940;50.096;4.012;2023-07-13T08:16:00;9.23;;;1.80;;
53056;SDS011;38940;50.096;4.012;2023-07-13T08:18:26;11.15;;;1.70;;
53056;SDS011;38940;50.096;4.012;2023-07-13T08:20:55;10.25;;;1.80;;
53056;SDS011;38940;50.096;4.012;2023-07-13T08:23:22;12.48;;;1.83;;
53056;SDS011;38940;50.096;4.012;2023-07-13T08:25:51;11.98;;;2.10;;
53056;SDS011;38940;50.096;4.012;2023-07-13T08:28:18;10.13;;;1.85;;
53056;SDS011;38940;50.096;4.012;2023-07-13T08:30:45;8.40;;;1.60;;
53056;SDS011;38940;50.096;4.012;2023-07-13T08:33:14;10.48;;;1.80;;
53056;SDS011;38940;50.096;4.012;2023-07-13T08:35:40;11.18;;;1.50;;
53056;SDS011;38940;50.096;4.012;2023-07-13T08:38:06;13.30;;;2.30;;
53056;SDS011;38940;50.096;4.012;2023-07-13T08:40:32;11.07;;;1.87;;
53056;SDS011;38940;50.096;4.012;2023-07-13T08:42:59;8.65;;;1.83;;
53056;SDS011;38940;50.096;4.012;2023-07-13T08:45:28;12.48;;;1.80;;
53056;SDS011;38940;50.096;4.012;2023-07-13T08:48:01;10.30;;;2.05;;
53056;SDS011;38940;50.096;4.012;2023-07-13T08:50:31;12.07;;;1.95;;
53056;SDS011;38940;50.096;4.012;2023-07-13T08:52:59;11.17;;;2.10;;
53056;SDS011;38940;50.096;4.012;2023-07-13T08:55:27;11.90;;;2.03;;
53056;SDS011;38940;50.096;4.012;2023-07-13T08:57:59;14.20;;;1.77;;
53056;SDS011;38940;50.096;4.012;2023-07-13T09:00:28;10.00;;;1.70;;
53056;SDS011;38940;50.096;4.012;2023-07-13T09:02:58;7.05;;;1.63;;
53056;SDS011;38940;50.096;4.012;2023-07-13T09:05:26;8.02;;;1.60;;
53056;SDS011;38940;50.096;4.012;2023-07-13T09:08:05;6.93;;;1.42;;
53056;SDS011;38940;50.096;4.012;2023-07-13T09:10:52;8.75;;;1.70;;
53056;SDS011;38940;50.096;4.012;2023-07-13T09:15:59;8.60;;;1.90;;
53056;SDS011;38940;50.096;4.012;2023-07-13T09:20:54;8.55;;;1.80;;
53056;SDS011;38940;50.096;4.012;2023-07-13T09:23:22;9.37;;;1.50;;
53056;SDS011;38940;50.096;4.012;2023-07-13T09:25:49;8.55;;;2.00;;
53056;SDS011;38940;50.096;4.012;2023-07-13T09:28:24;6.00;;;1.50;;
53056;SDS011;38940;50.096;4.012;2023-07-13T09:30:53;6.85;;;1.30;;
53056;SDS011;38940;50.096;4.012;2023-07-13T09:33:21;9.95;;;1.65;;
53056;SDS011;38940;50.096;4.012;2023-07-13T09:35:48;7.88;;;1.55;;
53056;SDS011;38940;50.096;4.012;2023-07-13T09:38:15;7.60;;;1.60;;
53056;SDS011;38940;50.096;4.012;2023-07-13T09:43:24;5.82;;;1.50;;
53056;SDS011;38940;50.096;4.012;2023-07-13T09:45:50;10.00;;;2.00;;
53056;SDS011;38940;50.096;4.012;2023-07-13T09:48:16;8.35;;;2.00;;
53056;SDS011;38940;50.096;4.012;2023-07-13T09:50:43;9.93;;;1.95;;
53056;SDS011;38940;50.096;4.012;2023-07-13T09:53:16;8.60;;;1.52;;
53056;SDS011;38940;50.096;4.012;2023-07-13T09:55:44;9.68;;;1.80;;
53056;SDS011;38940;50.096;4.012;2023-07-13T10:00:37;12.98;;;1.90;;
53056;SDS011;38940;50.096;4.012;2023-07-13T10:03:09;11.10;;;2.10;;
53056;SDS011;38940;50.096;4.012;2023-07-13T10:05:42;8.45;;;1.60;;
53056;SDS011;38940;50.096;4.012;2023-07-13T10:08:19;12.30;;;2.22;;
53056;SDS011;38940;50.096;4.012;2023-07-13T10:10:46;9.57;;;1.77;;
53056;SDS011;38940;50.096;4.012;2023-07-13T10:13:24;10.13;;;1.90;;
53056;SDS011;38940;50.096;4.012;2023-07-13T10:15:51;12.20;;;2.30;;
53056;SDS011;38940;50.096;4.012;2023-07-13T10:18:17;8.07;;;1.60;;
53056;SDS011;38940;50.096;4.012;2023-07-13T10:20:44;10.75;;;1.95;;
53056;SDS011;38940;50.096;4.012;2023-07-13T10:23:13;10.60;;;1.88;;
53056;SDS011;38940;50.096;4.012;2023-07-13T10:25:42;9.93;;;1.88;;
53056;SDS011;38940;50.096;4.012;2023-07-13T10:28:12;7.37;;;1.50;;
53056;SDS011;38940;50.096;4.012;2023-07-13T10:30:42;11.82;;;1.90;;
53056;SDS011;38940;50.096;4.012;2023-07-13T10:33:10;8.75;;;2.10;;
53056;SDS011;38940;50.096;4.012;2023-07-13T10:35:36;11.50;;;2.00;;
53056;SDS011;38940;50.096;4.012;2023-07-13T10:38:04;8.88;;;1.80;;
53056;SDS011;38940;50.096;4.012;2023-07-13T10:40:40;9.00;;;1.55;;
53056;SDS011;38940;50.096;4.012;2023-07-13T10:45:52;8.07;;;1.48;;
53056;SDS011;38940;50.096;4.012;2023-07-13T10:48:19;8.15;;;1.17;;
53056;SDS011;38940;50.096;4.012;2023-07-13T10:50:47;5.20;;;1.50;;
53056;SDS011;38940;50.096;4.012;2023-07-13T10:53:18;7.28;;;1.15;;
53056;SDS011;38940;50.096;4.012;2023-07-13T10:58:22;6.50;;;1.30;;
53056;SDS011;38940;50.096;4.012;2023-07-13T11:00:51;8.93;;;1.48;;
53056;SDS011;38940;50.096;4.012;2023-07-13T11:03:20;7.40;;;1.40;;
53056;SDS011;38940;50.096;4.012;2023-07-13T11:05:49;7.47;;;1.60;;
53056;SDS011;38940;50.096;4.012;2023-07-13T11:08:20;6.40;;;1.40;;
53056;SDS011;38940;50.096;4.012;2023-07-13T11:10:54;6.60;;;1.60;;
53056;SDS011;38940;50.096;4.012;2023-07-13T11:13:55;10.10;;;1.60;;
53056;SDS011;38940;50.096;4.012;2023-07-13T11:18:52;8.25;;;1.42;;
53056;SDS011;38940;50.096;4.012;2023-07-13T11:23:45;6.95;;;1.40;;
53056;SDS011;38940;50.096;4.012;2023-07-13T11:29:07;9.27;;;1.60;;
53056;SDS011;38940;50.096;4.012;2023-07-13T11:31:33;6.60;;;1.47;;
53056;SDS011;38940;50.096;4.012;2023-07-13T11:34:00;7.55;;;1.40;;
53056;SDS011;38940;50.096;4.012;2023-07-13T11:36:30;7.80;;;1.45;;
53056;SDS011;38940;50.096;4.012;2023-07-13T11:39:04;8.75;;;1.65;;
53056;SDS011;38940;50.096;4.012;2023-07-13T11:41:33;5.97;;;1.42;;
53056;SDS011;38940;50.096;4.012;2023-07-13T11:44:34;5.80;;;1.33;;
53056;SDS011;38940;50.096;4.012;2023-07-13T11:46:54;6.43;;;1.48;;
53056;SDS011;38940;50.096;4.012;2023-07-13T11:49:21;6.35;;;1.58;;
53056;SDS011;38940;50.096;4.012;2023-07-13T11:51:48;9.63;;;1.70;;
53056;SDS011;38940;50.096;4.012;2023-07-13T11:59:46;5.83;;;1.50;;
53056;SDS011;38940;50.096;4.012;2023-07-13T12:02:16;5.47;;;1.23;;
53056;SDS011;38940;50.096;4.012;2023-07-13T12:04:44;5.10;;;1.50;;
53056;SDS011;38940;50.096;4.012;2023-07-13T12:07:33;6.53;;;1.15;;
53056;SDS011;38940;50.096;4.012;2023-07-13T12:15:29;5.53;;;1.45;;
53056;SDS011;38940;50.096;4.012;2023-07-13T12:17:59;7.32;;;1.30;;
53056;SDS011;38940;50.096;4.012;2023-07-13T12:20:35;6.13;;;1.60;;
53056;SDS011;38940;50.096;4.012;2023-07-13T12:25:47;3.53;;;1.10;;
53056;SDS011;38940;50.096;4.012;2023-07-13T12:28:23;6.18;;;1.10;;
53056;SDS011;38940;50.096;4.012;2023-07-13T12:31:03;2.88;;;1.00;;
53056;SDS011;38940;50.096;4.012;2023-07-13T12:33:29;2.35;;;1.00;;
53056;SDS011;38940;50.096;4.012;2023-07-13T12:35:57;3.13;;;1.10;;
53056;SDS011;38940;50.096;4.012;2023-07-13T12:38:25;4.53;;;1.13;;
53056;SDS011;38940;50.096;4.012;2023-07-13T12:40:51;3.30;;;1.10;;
53056;SDS011;38940;50.096;4.012;2023-07-13T12:43:17;3.97;;;1.10;;
53056;SDS011;38940;50.096;4.012;2023-07-13T12:48:30;5.60;;;1.10;;
53056;SDS011;38940;50.096;4.012;2023-07-13T12:51:03;4.32;;;1.10;;
53056;SDS011;38940;50.096;4.012;2023-07-13T12:53:30;3.25;;;1.10;;
53056;SDS011;38940;50.096;4.012;2023-07-13T12:55:57;2.85;;;0.90;;
53056;SDS011;38940;50.096;4.012;2023-07-13T12:58:37;3.38;;;1.08;;
53056;SDS011;38940;50.096;4.012;2023-07-13T13:01:05;2.80;;;0.95;;
53056;SDS011;38940;50.096;4.012;2023-07-13T13:03:34;1.65;;;0.93;;
53056;SDS011;38940;50.096;4.012;2023-07-13T13:06:04;2.93;;;0.87;;
53056;SDS011;38940;50.096;4.012;2023-07-13T13:08:32;2.10;;;0.98;;
53056;SDS011;38940;50.096;4.012;2023-07-13T13:10:58;1.95;;;0.90;;
53056;SDS011;38940;50.096;4.012;2023-07-13T13:13:24;2.78;;;0.90;;
53056;SDS011;38940;50.096;4.012;2023-07-13T13:15:50;1.90;;;0.90;;
53056;SDS011;38940;50.096;4.012;2023-07-13T13:18:18;2.55;;;0.90;;
53056;SDS011;38940;50.096;4.012;2023-07-13T13:20:44;3.08;;;1.17;;
53056;SDS011;38940;50.096;4.012;2023-07-13T13:23:15;2.25;;;0.90;;
53056;SDS011;38940;50.096;4.012;2023-07-13T13:25:42;2.47;;;1.08;;
53056;SDS011;38940;50.096;4.012;2023-07-13T13:28:13;3.05;;;0.90;;
53056;SDS011;38940;50.096;4.012;2023-07-13T13:30:40;3.08;;;1.00;;
53056;SDS011;38940;50.096;4.012;2023-07-13T13:33:08;3.25;;;1.10;;
53056;SDS011;38940;50.096;4.012;2023-07-13T13:35:34;2.63;;;0.90;;
53056;SDS011;38940;50.096;4.012;2023-07-13T13:38:00;4.97;;;1.05;;
53056;SDS011;38940;50.096;4.012;2023-07-13T13:40:26;2.47;;;0.80;;
53056;SDS011;38940;50.096;4.012;2023-07-13T13:42:53;2.95;;;0.80;;
53056;SDS011;38940;50.096;4.012;2023-07-13T13:45:21;2.45;;;1.00;;
53056;SDS011;38940;50.096;4.012;2023-07-13T13:47:52;2.42;;;0.90;;
53056;SDS011;38940;50.096;4.012;2023-07-13T13:50:21;2.10;;;0.80;;
53056;SDS011;38940;50.096;4.012;2023-07-13T13:52:47;3.90;;;0.80;;
53056;SDS011;38940;50.096;4.012;2023-07-13T13:55:18;2.97;;;0.90;;
53056;SDS011;38940;50.096;4.012;2023-07-13T13:57:45;2.00;;;0.88;;
53056;SDS011;38940;50.096;4.012;2023-07-13T14:00:11;3.10;;;0.88;;
53056;SDS011;38940;50.096;4.012;2023-07-13T14:02:39;2.65;;;1.00;;
53056;SDS011;38940;50.096;4.012;2023-07-13T14:05:06;2.50;;;0.97;;
53056;SDS011;38940;50.096;4.012;2023-07-13T14:07:35;4.03;;;1.00;;
53056;SDS011;38940;50.096;4.012;2023-07-13T14:10:02;1.40;;;0.80;;
53056;SDS011;38940;50.096;4.012;2023-07-13T14:12:28;3.17;;;1.00;;
53056;SDS011;38940;50.096;4.012;2023-07-13T14:14:56;5.40;;;0.95;;
53056;SDS011;38940;50.096;4.012;2023-07-13T14:17:24;3.88;;;1.00;;
53056;SDS011;38940;50.096;4.012;2023-07-13T14:19:52;3.65;;;0.90;;
53056;SDS011;38940;50.096;4.012;2023-07-13T14:22:22;3.95;;;1.05;;
53056;SDS011;38940;50.096;4.012;2023-07-13T14:24:48;3.22;;;1.00;;
53056;SDS011;38940;50.096;4.012;2023-07-13T14:27:14;4.63;;;1.15;;
53056;SDS011;38940;50.096;4.012;2023-07-13T14:29:40;3.30;;;1.08;;
53056;SDS011;38940;50.096;4.012;2023-07-13T14:32:10;4.85;;;1.05;;
53056;SDS011;38940;50.096;4.012;2023-07-13T14:34:36;4.28;;;1.05;;
53056;SDS011;38940;50.096;4.012;2023-07-13T14:37:03;3.92;;;1.30;;
53056;SDS011;38940;50.096;4.012;2023-07-13T14:39:29;1.73;;;0.98;;
53056;SDS011;38940;50.096;4.012;2023-07-13T14:41:58;2.30;;;0.88;;
53056;SDS011;38940;50.096;4.012;2023-07-13T14:44:25;3.22;;;0.93;;
53056;SDS011;38940;50.096;4.012;2023-07-13T14:46:51;5.07;;;1.07;;
53056;SDS011;38940;50.096;4.012;2023-07-13T14:51:47;1.73;;;0.97;;
53056;SDS011;38940;50.096;4.012;2023-07-13T14:54:13;3.20;;;1.17;;
53056;SDS011;38940;50.096;4.012;2023-07-13T14:56:39;4.03;;;1.20;;
53056;SDS011;38940;50.096;4.012;2023-07-13T14:59:05;3.67;;;1.10;;
53056;SDS011;38940;50.096;4.012;2023-07-13T15:01:32;4.72;;;1.10;;
53056;SDS011;38940;50.096;4.012;2023-07-13T15:03:59;2.88;;;1.23;;
53056;SDS011;38940;50.096;4.012;2023-07-13T15:06:25;3.55;;;1.17;;
53056;SDS011;38940;50.096;4.012;2023-07-13T15:08:51;4.17;;;1.37;;
53056;SDS011;38940;50.096;4.012;2023-07-13T15:11:17;3.92;;;1.40;;
53056;SDS011;38940;50.096;4.012;2023-07-13T15:13:43;2.70;;;1.10;;
53056;SDS011;38940;50.096;4.012;2023-07-13T15:16:16;3.10;;;1.27;;
53056;SDS011;38940;50.096;4.012;2023-07-13T15:18:43;3.53;;;1.38;;
53056;SDS011;38940;50.096;4.012;2023-07-13T15:21:10;3.08;;;1.30;;
53056;SDS011;38940;50.096;4.012;2023-07-13T15:23:39;2.85;;;1.45;;
53056;SDS011;38940;50.096;4.012;2023-07-13T15:26:07;2.72;;;1.50;;
53056;SDS011;38940;50.096;4.012;2023-07-13T15:28:33;2.55;;;1.20;;